sensor_id;sensor_type;location;lat;lon;timestamp;P1;durP1;ratioP1;P2;durP2;ratioP2
82948;SDS011;72736;50.236;18.876;2024-01-16T00:01:16;13.90;;;4.80;;
82948;SDS011;72736;50.236;18.876;2024-01-16T00:06:23;15.30;;;6.10;;
82948;SDS011;72736;50.236;18.876;2024-01-16T00:11:29;13.10;;;5.20;;
82948;SDS011;72736;50.236;18.876;2024-01-16T00:16:36;16.00;;;5.70;;
82948;SDS011;72736;50.236;18.876;2024-01-16T00:21:47;11.40;;;4.20;;
82948;SDS011;72736;50.236;18.876;2024-01-16T00:26:54;15.00;;;5.90;;
82948;SDS011;72736;50.236;18.876;2024-01-16T00:32:00;13.40;;;5.80;;
82948;SDS011;72736;50.236;18.876;2024-01-16T00:37:06;15.20;;;5.30;;
82948;SDS011;72736;50.236;18.876;2024-01-16T00:42:11;11.10;;;4.90;;
82948;SDS011;72736;50.236;18.876;2024-01-16T00:47:17;13.10;;;5.60;;
82948;SDS011;72736;50.236;18.876;2024-01-16T00:52:23;12.80;;;5.60;;
82948;SDS011;72736;50.236;18.876;2024-01-16T00:57:28;13.00;;;4.70;;
82948;SDS011;72736;50.236;18.876;2024-01-16T01:02:34;11.20;;;5.30;;
82948;SDS011;72736;50.236;18.876;2024-01-16T01:07:40;13.40;;;5.80;;
82948;SDS011;72736;50.236;18.876;2024-01-16T01:12:45;12.00;;;5.10;;
82948;SDS011;72736;50.236;18.876;2024-01-16T01:17:51;14.10;;;5.60;;
82948;SDS011;72736;50.236;18.876;2024-01-16T01:22:58;13.40;;;5.10;;
82948;SDS011;72736;50.236;18.876;2024-01-16T01:28:04;14.60;;;6.00;;
82948;SDS011;72736;50.236;18.876;2024-01-16T01:33:10;14.80;;;5.60;;
82948;SDS011;72736;50.236;18.876;2024-01-16T01:38:16;14.70;;;6.00;;
82948;SDS011;72736;50.236;18.876;2024-01-16T01:43:22;16.00;;;6.30;;
82948;SDS011;72736;50.236;18.876;2024-01-16T01:48:29;15.20;;;5.60;;
82948;SDS011;72736;50.236;18.876;2024-01-16T01:53:36;10.30;;;4.70;;
82948;SDS011;72736;50.236;18.876;2024-01-16T01:58:46;8.60;;;4.30;;
82948;SDS011;72736;50.236;18.876;2024-01-16T02:03:54;9.50;;;3.90;;
82948;SDS011;72736;50.236;18.876;2024-01-16T02:09:01;10.90;;;5.00;;
82948;SDS011;72736;50.236;18.876;2024-01-16T02:14:10;9.50;;;3.60;;
82948;SDS011;72736;50.236;18.876;2024-01-16T02:19:15;6.60;;;3.10;;
82948;SDS011;72736;50.236;18.876;2024-01-16T02:24:21;7.40;;;3.10;;
82948;SDS011;72736;50.236;18.876;2024-01-16T02:29:27;10.60;;;4.10;;
82948;SDS011;72736;50.236;18.876;2024-01-16T02:34:33;9.50;;;3.50;;
82948;SDS011;72736;50.236;18.876;2024-01-16T02:39:39;10.40;;;4.30;;
82948;SDS011;72736;50.236;18.876;2024-01-16T02:44:45;10.70;;;4.00;;
82948;SDS011;72736;50.236;18.876;2024-01-16T02:49:50;8.50;;;3.60;;
82948;SDS011;72736;50.236;18.876;2024-01-16T02:54:56;9.20;;;3.50;;
82948;SDS011;72736;50.236;18.876;2024-01-16T03:00:02;9.30;;;4.50;;
82948;SDS011;72736;50.236;18.876;2024-01-16T03:05:10;8.30;;;4.00;;
82948;SDS011;72736;50.236;18.876;2024-01-16T03:10:16;8.90;;;4.10;;
82948;SDS011;72736;50.236;18.876;2024-01-16T03:15:22;8.60;;;4.60;;
82948;SDS011;72736;50.236;18.876;2024-01-16T03:20:28;11.30;;;5.30;;
82948;SDS011;72736;50.236;18.876;2024-01-16T03:25:34;11.00;;;5.30;;
82948;SDS011;72736;50.236;18.876;2024-01-16T03:30:41;13.90;;;4.50;;
82948;SDS011;72736;50.236;18.876;2024-01-16T03:35:47;15.00;;;6.30;;
82948;SDS011;72736;50.236;18.876;2024-01-16T03:40:53;12.30;;;5.20;;
82948;SDS011;72736;50.236;18.876;2024-01-16T03:45:59;5.80;;;2.90;;
82948;SDS011;72736;50.236;18.876;2024-01-16T03:51:05;6.70;;;3.10;;
82948;SDS011;72736;50.236;18.876;2024-01-16T03:56:11;7.70;;;4.20;;
82948;SDS011;72736;50.236;18.876;2024-01-16T04:01:19;7.40;;;3.10;;
82948;SDS011;72736;50.236;18.876;2024-01-16T04:06:40;6.20;;;3.40;;
82948;SDS011;72736;50.236;18.876;2024-01-16T04:11:46;9.70;;;3.80;;
82948;SDS011;72736;50.236;18.876;2024-01-16T04:16:56;8.10;;;3.60;;
82948;SDS011;72736;50.236;18.876;2024-01-16T04:22:01;9.90;;;4.10;;
82948;SDS011;72736;50.236;18.876;2024-01-16T04:27:07;10.90;;;4.30;;
82948;SDS011;72736;50.236;18.876;2024-01-16T04:32:16;11.20;;;4.30;;
82948;SDS011;72736;50.236;18.876;2024-01-16T04:37:22;6.20;;;3.20;;
82948;SDS011;72736;50.236;18.876;2024-01-16T04:42:27;6.60;;;3.40;;
82948;SDS011;72736;50.236;18.876;2024-01-16T04:47:33;7.80;;;3.10;;
82948;SDS011;72736;50.236;18.876;2024-01-16T04:52:39;5.80;;;3.00;;
82948;SDS011;72736;50.236;18.876;2024-01-16T04:57:44;5.10;;;2.60;;
82948;SDS011;72736;50.236;18.876;2024-01-16T05:02:50;9.50;;;3.20;;
82948;SDS011;72736;50.236;18.876;2024-01-16T05:08:00;6.40;;;2.90;;
82948;SDS011;72736;50.236;18.876;2024-01-16T05:13:06;8.10;;;3.30;;
82948;SDS011;72736;50.236;18.876;2024-01-16T05:18:14;10.00;;;3.40;;
82948;SDS011;72736;50.236;18.876;2024-01-16T05:23:22;8.90;;;4.30;;
82948;SDS011;72736;50.236;18.876;2024-01-16T05:28:28;8.00;;;4.10;;
82948;SDS011;72736;50.236;18.876;2024-01-16T05:33:34;7.90;;;4.20;;
82948;SDS011;72736;50.236;18.876;2024-01-16T05:38:39;10.40;;;4.30;;
82948;SDS011;72736;50.236;18.876;2024-01-16T05:48:51;12.10;;;5.30;;
82948;SDS011;72736;50.236;18.876;2024-01-16T05:53:57;24.20;;;8.20;;
82948;SDS011;72736;50.236;18.876;2024-01-16T05:59:02;24.00;;;9.50;;
82948;SDS011;72736;50.236;18.876;2024-01-16T06:04:10;20.40;;;8.70;;
82948;SDS011;72736;50.236;18.876;2024-01-16T06:09:16;13.40;;;5.60;;
82948;SDS011;72736;50.236;18.876;2024-01-16T06:14:22;12.80;;;5.90;;
82948;SDS011;72736;50.236;18.876;2024-01-16T06:19:28;17.30;;;8.60;;
82948;SDS011;72736;50.236;18.876;2024-01-16T06:24:34;12.30;;;6.00;;
82948;SDS011;72736;50.236;18.876;2024-01-16T06:29:41;12.00;;;6.10;;
82948;SDS011;72736;50.236;18.876;2024-01-16T06:34:47;10.00;;;5.40;;
82948;SDS011;72736;50.236;18.876;2024-01-16T06:39:53;14.90;;;5.50;;
82948;SDS011;72736;50.236;18.876;2024-01-16T06:44:58;13.70;;;5.80;;
82948;SDS011;72736;50.236;18.876;2024-01-16T06:50:05;13.30;;;5.60;;
82948;SDS011;72736;50.236;18.876;2024-01-16T06:55:11;14.90;;;6.80;;
82948;SDS011;72736;50.236;18.876;2024-01-16T07:00:17;13.60;;;6.70;;
82948;SDS011;72736;50.236;18.876;2024-01-16T07:05:25;10.50;;;4.50;;
82948;SDS011;72736;50.236;18.876;2024-01-16T07:10:32;12.60;;;5.10;;
82948;SDS011;72736;50.236;18.876;2024-01-16T07:20:43;9.80;;;3.20;;
82948;SDS011;72736;50.236;18.876;2024-01-16T07:25:50;7.10;;;3.40;;
82948;SDS011;72736;50.236;18.876;2024-01-16T07:30:56;7.70;;;4.00;;
82948;SDS011;72736;50.236;18.876;2024-01-16T07:36:02;10.20;;;3.80;;
82948;SDS011;72736;50.236;18.876;2024-01-16T07:41:09;10.30;;;4.90;;
82948;SDS011;72736;50.236;18.876;2024-01-16T07:46:15;10.10;;;5.20;;
82948;SDS011;72736;50.236;18.876;2024-01-16T07:51:20;10.40;;;4.90;;
82948;SDS011;72736;50.236;18.876;2024-01-16T07:56:26;10.80;;;4.90;;
82948;SDS011;72736;50.236;18.876;2024-01-16T08:01:34;16.70;;;6.50;;
82948;SDS011;72736;50.236;18.876;2024-01-16T08:06:40;20.20;;;7.40;;
82948;SDS011;72736;50.236;18.876;2024-01-16T08:11:46;18.20;;;8.40;;
82948;SDS011;72736;50.236;18.876;2024-01-16T08:16:52;18.00;;;8.00;;
82948;SDS011;72736;50.236;18.876;2024-01-16T08:21:58;20.70;;;7.80;;
82948;SDS011;72736;50.236;18.876;2024-01-16T08:27:07;14.10;;;6.00;;
82948;SDS011;72736;50.236;18.876;2024-01-16T08:32:13;16.50;;;7.90;;
82948;SDS011;72736;50.236;18.876;2024-01-16T08:37:20;18.30;;;7.40;;
82948;SDS011;72736;50.236;18.876;2024-01-16T08:42:26;21.00;;;8.00;;
82948;SDS011;72736;50.236;18.876;2024-01-16T08:47:32;24.80;;;9.10;;
82948;SDS011;72736;50.236;18.876;2024-01-16T08:52:39;23.90;;;9.90;;
82948;SDS011;72736;50.236;18.876;2024-01-16T08:57:45;20.10;;;9.40;;
82948;SDS011;72736;50.236;18.876;2024-01-16T09:02:51;20.00;;;9.10;;
82948;SDS011;72736;50.236;18.876;2024-01-16T09:07:57;28.70;;;10.30;;
82948;SDS011;72736;50.236;18.876;2024-01-16T09:13:03;20.90;;;8.30;;
82948;SDS011;72736;50.236;18.876;2024-01-16T09:18:11;18.90;;;6.20;;
82948;SDS011;72736;50.236;18.876;2024-01-16T09:23:17;18.00;;;6.40;;
82948;SDS011;72736;50.236;18.876;2024-01-16T09:28:23;16.70;;;7.60;;
82948;SDS011;72736;50.236;18.876;2024-01-16T09:33:32;20.10;;;7.40;;
82948;SDS011;72736;50.236;18.876;2024-01-16T09:38:38;16.20;;;6.90;;
82948;SDS011;72736;50.236;18.876;2024-01-16T09:43:44;16.90;;;6.60;;
82948;SDS011;72736;50.236;18.876;2024-01-16T09:48:51;18.60;;;6.50;;
82948;SDS011;72736;50.236;18.876;2024-01-16T09:53:59;15.30;;;6.10;;
82948;SDS011;72736;50.236;18.876;2024-01-16T09:59:12;16.50;;;7.40;;
82948;SDS011;72736;50.236;18.876;2024-01-16T10:04:21;15.40;;;6.30;;
82948;SDS011;72736;50.236;18.876;2024-01-16T10:09:27;17.60;;;6.60;;
82948;SDS011;72736;50.236;18.876;2024-01-16T10:14:33;19.20;;;6.30;;
82948;SDS011;72736;50.236;18.876;2024-01-16T10:19:39;11.80;;;5.50;;
82948;SDS011;72736;50.236;18.876;2024-01-16T10:25:08;10.80;;;4.30;;
82948;SDS011;72736;50.236;18.876;2024-01-16T10:30:16;10.10;;;3.80;;
82948;SDS011;72736;50.236;18.876;2024-01-16T10:35:27;7.00;;;2.70;;
82948;SDS011;72736;50.236;18.876;2024-01-16T10:40:33;7.40;;;2.90;;
82948;SDS011;72736;50.236;18.876;2024-01-16T10:45:39;6.80;;;2.60;;
82948;SDS011;72736;50.236;18.876;2024-01-16T10:50:44;8.70;;;3.00;;
82948;SDS011;72736;50.236;18.876;2024-01-16T10:55:55;11.20;;;3.80;;
82948;SDS011;72736;50.236;18.876;2024-01-16T11:01:04;6.70;;;3.10;;
82948;SDS011;72736;50.236;18.876;2024-01-16T11:06:15;7.60;;;2.80;;
82948;SDS011;72736;50.236;18.876;2024-01-16T11:11:22;7.00;;;2.90;;
82948;SDS011;72736;50.236;18.876;2024-01-16T11:16:31;7.60;;;2.70;;
82948;SDS011;72736;50.236;18.876;2024-01-16T11:21:38;4.80;;;2.50;;
82948;SDS011;72736;50.236;18.876;2024-01-16T11:26:45;7.70;;;3.10;;
82948;SDS011;72736;50.236;18.876;2024-01-16T11:31:51;6.20;;;2.70;;
82948;SDS011;72736;50.236;18.876;2024-01-16T11:37:20;6.50;;;2.60;;
82948;SDS011;72736;50.236;18.876;2024-01-16T11:42:36;5.80;;;2.50;;
82948;SDS011;72736;50.236;18.876;2024-01-16T11:47:45;4.80;;;1.80;;
82948;SDS011;72736;50.236;18.876;2024-01-16T11:52:51;5.20;;;2.20;;
82948;SDS011;72736;50.236;18.876;2024-01-16T11:58:02;4.10;;;1.80;;
82948;SDS011;72736;50.236;18.876;2024-01-16T12:03:29;8.50;;;3.20;;
82948;SDS011;72736;50.236;18.876;2024-01-16T12:08:37;8.30;;;3.20;;
82948;SDS011;72736;50.236;18.876;2024-01-16T12:13:43;5.00;;;2.40;;
82948;SDS011;72736;50.236;18.876;2024-01-16T12:19:06;9.60;;;3.20;;
82948;SDS011;72736;50.236;18.876;2024-01-16T12:24:12;7.70;;;2.40;;
82948;SDS011;72736;50.236;18.876;2024-01-16T12:29:21;8.50;;;3.50;;
82948;SDS011;72736;50.236;18.876;2024-01-16T12:34:27;8.40;;;3.50;;
82948;SDS011;72736;50.236;18.876;2024-01-16T12:39:33;9.80;;;3.90;;
82948;SDS011;72736;50.236;18.876;2024-01-16T12:44:39;8.90;;;4.80;;
82948;SDS011;72736;50.236;18.876;2024-01-16T12:49:45;7.20;;;3.30;;
82948;SDS011;72736;50.236;18.876;2024-01-16T12:54:56;6.40;;;3.10;;
82948;SDS011;72736;50.236;18.876;2024-01-16T13:05:28;9.20;;;3.60;;
82948;SDS011;72736;50.236;18.876;2024-01-16T13:10:34;9.50;;;3.60;;
82948;SDS011;72736;50.236;18.876;2024-01-16T13:15:40;7.30;;;3.00;;
82948;SDS011;72736;50.236;18.876;2024-01-16T13:20:47;5.70;;;2.40;;
82948;SDS011;72736;50.236;18.876;2024-01-16T13:25:53;8.60;;;3.10;;
82948;SDS011;72736;50.236;18.876;2024-01-16T13:31:02;8.40;;;3.30;;
82948;SDS011;72736;50.236;18.876;2024-01-16T13:36:08;12.30;;;4.30;;
82948;SDS011;72736;50.236;18.876;2024-01-16T13:41:15;7.90;;;3.70;;
82948;SDS011;72736;50.236;18.876;2024-01-16T13:46:21;6.70;;;3.20;;
82948;SDS011;72736;50.236;18.876;2024-01-16T13:51:46;7.50;;;3.60;;
82948;SDS011;72736;50.236;18.876;2024-01-16T13:56:52;7.40;;;3.60;;
82948;SDS011;72736;50.236;18.876;2024-01-16T14:02:09;9.00;;;4.20;;
82948;SDS011;72736;50.236;18.876;2024-01-16T14:07:16;11.10;;;5.50;;
82948;SDS011;72736;50.236;18.876;2024-01-16T14:12:23;16.00;;;5.80;;
82948;SDS011;72736;50.236;18.876;2024-01-16T14:17:29;9.60;;;4.60;;
82948;SDS011;72736;50.236;18.876;2024-01-16T14:22:37;15.10;;;6.60;;
82948;SDS011;72736;50.236;18.876;2024-01-16T14:27:43;10.30;;;4.90;;
82948;SDS011;72736;50.236;18.876;2024-01-16T14:32:50;12.50;;;5.60;;
82948;SDS011;72736;50.236;18.876;2024-01-16T14:37:57;10.60;;;4.40;;
82948;SDS011;72736;50.236;18.876;2024-01-16T14:43:03;9.80;;;3.80;;
82948;SDS011;72736;50.236;18.876;2024-01-16T14:48:09;11.70;;;4.70;;
82948;SDS011;72736;50.236;18.876;2024-01-16T14:53:14;8.60;;;3.70;;
82948;SDS011;72736;50.236;18.876;2024-01-16T14:58:21;8.40;;;4.50;;
82948;SDS011;72736;50.236;18.876;2024-01-16T15:03:26;14.10;;;5.90;;
82948;SDS011;72736;50.236;18.876;2024-01-16T15:08:36;21.00;;;7.90;;
82948;SDS011;72736;50.236;18.876;2024-01-16T15:13:41;24.50;;;7.30;;
82948;SDS011;72736;50.236;18.876;2024-01-16T15:18:47;17.40;;;6.90;;
82948;SDS011;72736;50.236;18.876;2024-01-16T15:23:53;13.70;;;6.00;;
82948;SDS011;72736;50.236;18.876;2024-01-16T15:28:59;16.40;;;5.40;;
82948;SDS011;72736;50.236;18.876;2024-01-16T15:34:05;15.20;;;5.20;;
82948;SDS011;72736;50.236;18.876;2024-01-16T15:39:11;14.40;;;5.80;;
82948;SDS011;72736;50.236;18.876;2024-01-16T15:44:19;15.80;;;5.80;;
82948;SDS011;72736;50.236;18.876;2024-01-16T15:49:24;15.40;;;6.30;;
82948;SDS011;72736;50.236;18.876;2024-01-16T15:54:31;22.40;;;9.30;;
82948;SDS011;72736;50.236;18.876;2024-01-16T15:59:37;16.80;;;8.50;;
82948;SDS011;72736;50.236;18.876;2024-01-16T16:04:42;14.00;;;6.80;;
82948;SDS011;72736;50.236;18.876;2024-01-16T16:09:50;12.60;;;6.10;;
82948;SDS011;72736;50.236;18.876;2024-01-16T16:14:56;11.60;;;5.80;;
82948;SDS011;72736;50.236;18.876;2024-01-16T16:20:03;13.30;;;5.90;;
82948;SDS011;72736;50.236;18.876;2024-01-16T16:25:12;16.80;;;6.30;;
82948;SDS011;72736;50.236;18.876;2024-01-16T16:30:18;18.00;;;7.00;;
82948;SDS011;72736;50.236;18.876;2024-01-16T16:35:25;18.40;;;7.50;;
82948;SDS011;72736;50.236;18.876;2024-01-16T16:40:31;27.30;;;10.50;;
82948;SDS011;72736;50.236;18.876;2024-01-16T16:45:37;55.30;;;21.40;;
82948;SDS011;72736;50.236;18.876;2024-01-16T16:50:43;56.30;;;21.80;;
82948;SDS011;72736;50.236;18.876;2024-01-16T16:55:49;56.10;;;22.30;;
82948;SDS011;72736;50.236;18.876;2024-01-16T17:00:55;51.50;;;19.70;;
82948;SDS011;72736;50.236;18.876;2024-01-16T17:06:01;44.50;;;16.90;;
82948;SDS011;72736;50.236;18.876;2024-01-16T17:11:07;45.90;;;15.70;;
82948;SDS011;72736;50.236;18.876;2024-01-16T17:16:13;30.40;;;10.70;;
82948;SDS011;72736;50.236;18.876;2024-01-16T17:21:25;22.20;;;8.90;;
82948;SDS011;72736;50.236;18.876;2024-01-16T17:26:31;20.10;;;8.10;;
82948;SDS011;72736;50.236;18.876;2024-01-16T17:31:39;24.70;;;9.00;;
82948;SDS011;72736;50.236;18.876;2024-01-16T17:36:45;25.80;;;9.80;;
82948;SDS011;72736;50.236;18.876;2024-01-16T17:41:51;25.10;;;9.20;;
82948;SDS011;72736;50.236;18.876;2024-01-16T17:46:57;26.30;;;8.90;;
82948;SDS011;72736;50.236;18.876;2024-01-16T17:52:03;21.70;;;8.90;;
82948;SDS011;72736;50.236;18.876;2024-01-16T17:57:13;24.10;;;7.80;;
82948;SDS011;72736;50.236;18.876;2024-01-16T18:02:19;22.50;;;8.90;;
82948;SDS011;72736;50.236;18.876;2024-01-16T18:07:26;21.90;;;8.00;;
82948;SDS011;72736;50.236;18.876;2024-01-16T18:12:31;20.30;;;7.80;;
82948;SDS011;72736;50.236;18.876;2024-01-16T18:17:37;22.00;;;9.60;;
82948;SDS011;72736;50.236;18.876;2024-01-16T18:22:43;25.30;;;8.50;;
82948;SDS011;72736;50.236;18.876;2024-01-16T18:27:51;19.90;;;8.80;;
82948;SDS011;72736;50.236;18.876;2024-01-16T18:33:00;27.90;;;9.90;;
82948;SDS011;72736;50.236;18.876;2024-01-16T18:38:06;25.10;;;10.60;;
82948;SDS011;72736;50.236;18.876;2024-01-16T18:43:12;25.60;;;10.40;;
82948;SDS011;72736;50.236;18.876;2024-01-16T18:48:19;22.00;;;8.50;;
82948;SDS011;72736;50.236;18.876;2024-01-16T18:53:25;22.70;;;9.30;;
82948;SDS011;72736;50.236;18.876;2024-01-16T18:58:31;21.40;;;8.90;;
82948;SDS011;72736;50.236;18.876;2024-01-16T19:03:37;27.80;;;10.60;;
82948;SDS011;72736;50.236;18.876;2024-01-16T19:08:43;35.30;;;13.20;;
82948;SDS011;72736;50.236;18.876;2024-01-16T19:13:50;33.70;;;13.60;;
82948;SDS011;72736;50.236;18.876;2024-01-16T19:18:56;53.40;;;19.80;;
82948;SDS011;72736;50.236;18.876;2024-01-16T19:24:02;71.90;;;30.20;;
82948;SDS011;72736;50.236;18.876;2024-01-16T19:29:09;173.50;;;56.60;;
82948;SDS011;72736;50.236;18.876;2024-01-16T19:34:15;145.20;;;46.90;;
82948;SDS011;72736;50.236;18.876;2024-01-16T19:39:21;161.20;;;51.00;;
82948;SDS011;72736;50.236;18.876;2024-01-16T19:44:28;184.90;;;51.70;;
82948;SDS011;72736;50.236;18.876;2024-01-16T19:49:34;543.10;;;179.20;;
82948;SDS011;72736;50.236;18.876;2024-01-16T19:54:42;419.40;;;119.90;;
82948;SDS011;72736;50.236;18.876;2024-01-16T19:59:47;316.60;;;85.40;;
82948;SDS011;72736;50.236;18.876;2024-01-16T20:04:53;180.20;;;51.10;;
82948;SDS011;72736;50.236;18.876;2024-01-16T20:09:59;195.00;;;51.50;;
82948;SDS011;72736;50.236;18.876;2024-01-16T20:15:06;233.00;;;63.70;;
82948;SDS011;72736;50.236;18.876;2024-01-16T20:20:15;122.80;;;41.00;;
82948;SDS011;72736;50.236;18.876;2024-01-16T20:25:22;111.70;;;34.10;;
82948;SDS011;72736;50.236;18.876;2024-01-16T20:30:28;191.70;;;67.80;;
82948;SDS011;72736;50.236;18.876;2024-01-16T20:35:36;171.90;;;62.10;;
82948;SDS011;72736;50.236;18.876;2024-01-16T20:40:41;140.10;;;48.40;;
82948;SDS011;72736;50.236;18.876;2024-01-16T20:45:47;93.80;;;35.90;;
82948;SDS011;72736;50.236;18.876;2024-01-16T20:50:53;91.70;;;34.40;;
82948;SDS011;72736;50.236;18.876;2024-01-16T20:55:59;100.80;;;36.20;;
82948;SDS011;72736;50.236;18.876;2024-01-16T21:01:05;158.50;;;42.50;;
82948;SDS011;72736;50.236;18.876;2024-01-16T21:06:12;139.90;;;41.30;;
82948;SDS011;72736;50.236;18.876;2024-01-16T21:11:19;111.50;;;35.50;;
82948;SDS011;72736;50.236;18.876;2024-01-16T21:16:25;98.30;;;34.20;;
82948;SDS011;72736;50.236;18.876;2024-01-16T21:21:32;162.40;;;54.00;;
82948;SDS011;72736;50.236;18.876;2024-01-16T21:26:38;176.20;;;58.20;;
82948;SDS011;72736;50.236;18.876;2024-01-16T21:31:48;160.40;;;53.70;;
82948;SDS011;72736;50.236;18.876;2024-01-16T21:36:56;147.20;;;49.00;;
82948;SDS011;72736;50.236;18.876;2024-01-16T21:42:03;133.90;;;43.70;;
82948;SDS011;72736;50.236;18.876;2024-01-16T21:47:11;89.00;;;32.70;;
82948;SDS011;72736;50.236;18.876;2024-01-16T21:52:19;95.40;;;33.20;;
82948;SDS011;72736;50.236;18.876;2024-01-16T22:02:32;79.70;;;27.60;;
82948;SDS011;72736;50.236;18.876;2024-01-16T22:07:38;82.30;;;31.10;;
82948;SDS011;72736;50.236;18.876;2024-01-16T22:12:44;80.00;;;28.60;;
82948;SDS011;72736;50.236;18.876;2024-01-16T22:17:50;68.60;;;23.60;;
82948;SDS011;72736;50.236;18.876;2024-01-16T22:22:58;58.90;;;19.80;;
82948;SDS011;72736;50.236;18.876;2024-01-16T22:28:04;53.70;;;18.60;;
82948;SDS011;72736;50.236;18.876;2024-01-16T22:33:12;53.10;;;19.40;;
82948;SDS011;72736;50.236;18.876;2024-01-16T22:38:19;44.10;;;17.10;;
82948;SDS011;72736;50.236;18.876;2024-01-16T22:43:25;36.20;;;14.90;;
82948;SDS011;72736;50.236;18.876;2024-01-16T22:48:31;36.60;;;15.10;;
82948;SDS011;72736;50.236;18.876;2024-01-16T22:53:37;32.20;;;12.90;;
82948;SDS011;72736;50.236;18.876;2024-01-16T23:03:48;34.80;;;13.60;;
82948;SDS011;72736;50.236;18.876;2024-01-16T23:08:59;37.00;;;14.00;;
82948;SDS011;72736;50.236;18.876;2024-01-16T23:14:04;39.20;;;13.50;;
82948;SDS011;72736;50.236;18.876;2024-01-16T23:19:10;34.10;;;14.40;;
82948;SDS011;72736;50.236;18.876;2024-01-16T23:24:18;36.20;;;14.30;;
82948;SDS011;72736;50.236;18.876;2024-01-16T23:29:24;27.10;;;11.00;;
82948;SDS011;72736;50.236;18.876;2024-01-16T23:34:33;43.60;;;14.20;;
82948;SDS011;72736;50.236;18.876;2024-01-16T23:39:40;54.10;;;18.70;;
82948;SDS011;72736;50.236;18.876;2024-01-16T23:44:46;41.70;;;14.50;;
82948;SDS011;72736;50.236;18.876;2024-01-16T23:49:52;46.60;;;16.60;;
82948;SDS011;72736;50.236;18.876;2024-01-16T23:54:58;42.90;;;16.00;;
